Imagine Liaison — ZGGE6 — position and weather

sailwx.info

Track history (hours):
 
Tides and Currents Weather Stations Pressure Air Temp Water Temp Dewpoint Dewpoint Depression Visibility Wind Speed Wind Dir Waves Ship Positions

Imagine Liaison

Last reported at 2018-Feb-06 11:40 UTC. Time now 2018-Feb-22 10:55 UTC.
Position N 24°11' W 076°30'.
Warning: this ship's position is 15 days out of date.

Length 10 m.

Type: Pleasure craft. MMSI: 319108300.

Date/timePositionNaut miles runAvg speedWind from/ knotsBaromVisibWave heightAir tempDewpointWater temp
2018-Feb-06 11:40N 24°11' W 076°30'0 0.0
2018-Feb-05 22:09N 24°11' W 076°30'0 0.0
2018-Feb-05 21:54N 24°11' W 076°30'0 0.3
2018-Feb-05 21:29N 24°11' W 076°30'2 4.6
2018-Feb-05 20:59N 24°12' W 076°27'1 2.7
2018-Feb-05 20:29N 24°10' W 076°27'1 2.0
2018-Feb-05 20:00N 24°10' W 076°26'2 3.7
2018-Feb-05 19:30N 24°11' W 076°28'2 3.6
2018-Feb-05 18:57N 24°11' W 076°30'0 0.0
2018-Feb-05 17:21N 24°11' W 076°30'10 1.9
2018-Feb-05 12:19N 24°03' W 076°35'1029.7
2018-Feb-05 12:00N 24°11' W 076°30'0 0.0
2018-Feb-05 11:30N 24°11' W 076°30'0 0.0
2018-Feb-04 23:51N 24°11' W 076°30'  
Track history (hours):
 
Tides and Currents Weather Stations Pressure Air Temp Water Temp Dewpoint Dewpoint Depression Visibility Wind Speed Wind Dir Waves Ship Positions

Imagine Liaison

Last reported at 2018-Feb-06 11:40 UTC. Time now 2018-Feb-22 10:55 UTC.
Position N 24°11' W 076°30'.
Warning: this ship's position is 15 days out of date.

Length 10 m.

Type: Pleasure craft. MMSI: 319108300.

Date/timePositionNaut miles runAvg speedWind from/ knotsBaromVisibWave heightAir tempDewpointWater temp
2018-Feb-06 11:40N 24°11' W 076°30'0 0.0
2018-Feb-05 22:09N 24°11' W 076°30'0 0.0
2018-Feb-05 21:54N 24°11' W 076°30'0 0.3
2018-Feb-05 21:29N 24°11' W 076°30'2 4.6
2018-Feb-05 20:59N 24°12' W 076°27'1 2.7
2018-Feb-05 20:29N 24°10' W 076°27'1 2.0
2018-Feb-05 20:00N 24°10' W 076°26'2 3.7
2018-Feb-05 19:30N 24°11' W 076°28'2 3.6
2018-Feb-05 18:57N 24°11' W 076°30'0 0.0
2018-Feb-05 17:21N 24°11' W 076°30'10 1.9
2018-Feb-05 12:19N 24°03' W 076°35'1029.7
2018-Feb-05 12:00N 24°11' W 076°30'0 0.0
2018-Feb-05 11:30N 24°11' W 076°30'0 0.0
2018-Feb-04 23:51N 24°11' W 076°30'  

Dump ship's entire track history